createdAt,value
2022-12-13T00:00:19.410Z,27.38
2022-12-13T00:02:51.663Z,21.00
2022-12-13T00:05:23.603Z,25.63
2022-12-13T00:07:55.807Z,31.20
2022-12-13T00:10:28.918Z,26.92
2022-12-13T00:13:00.973Z,38.10
2022-12-13T00:15:32.930Z,30.27
2022-12-13T00:18:04.975Z,28.77
2022-12-13T00:20:40.805Z,24.42
2022-12-13T00:23:12.681Z,23.98
2022-12-13T00:25:44.889Z,24.98
2022-12-13T00:28:17.672Z,25.83
2022-12-13T00:30:49.764Z,29.15
2022-12-13T00:33:21.710Z,24.30
2022-12-13T00:35:54.088Z,26.77
2022-12-13T00:38:26.373Z,26.05
2022-12-13T00:40:58.356Z,24.50
2022-12-13T00:43:30.717Z,29.02
2022-12-13T00:46:03.954Z,25.60
2022-12-13T00:48:38.105Z,20.70
2022-12-13T00:51:12.203Z,25.83
2022-12-13T00:53:44.591Z,24.52
2022-12-13T00:56:21.329Z,24.83
2022-12-13T00:58:59.862Z,24.02
2022-12-13T01:01:36.002Z,23.05
2022-12-13T01:04:08.090Z,26.23
2022-12-13T01:06:44.752Z,29.23
2022-12-13T01:09:21.937Z,24.08
2022-12-13T01:12:01.068Z,24.80
2022-12-13T01:14:36.738Z,26.23
2022-12-13T01:17:10.831Z,30.92
2022-12-13T01:19:42.984Z,29.77
2022-12-13T01:22:15.094Z,28.25
2022-12-13T01:24:47.297Z,26.20
2022-12-13T01:27:19.483Z,30.17
2022-12-13T01:29:51.490Z,23.33
2022-12-13T01:32:23.422Z,27.83
2022-12-13T01:34:55.558Z,29.63
2022-12-13T01:37:27.495Z,31.58
2022-12-13T01:39:59.494Z,20.90
2022-12-13T01:42:32.504Z,26.92
2022-12-13T01:45:22.397Z,26.25
2022-12-13T01:48:07.551Z,26.85
2022-12-13T01:50:50.191Z,24.50
2022-12-13T01:53:29.456Z,27.67
2022-12-13T01:56:11.264Z,27.38
2022-12-13T01:58:49.956Z,25.90
2022-12-13T02:01:24.483Z,30.35
2022-12-13T02:03:56.546Z,26.05
2022-12-13T02:06:36.620Z,26.08
2022-12-13T02:09:14.789Z,28.98
2022-12-13T02:11:47.304Z,24.98
2022-12-13T02:14:19.899Z,29.15
2022-12-13T02:17:30.283Z,24.05
2022-12-13T02:20:40.629Z,27.45
2022-12-13T02:23:26.033Z,23.73
2022-12-13T02:26:21.487Z,28.42
2022-12-13T02:29:30.707Z,29.70
2022-12-13T02:32:39.651Z,25.73
2022-12-13T02:35:39.782Z,28.05
2022-12-13T02:38:41.526Z,26.15
2022-12-13T02:41:36.418Z,27.48
2022-12-13T02:44:22.814Z,30.35
2022-12-13T02:47:05.367Z,26.95
2022-12-13T02:49:54.306Z,24.52
2022-12-13T02:52:31.853Z,28.95
2022-12-13T02:55:09.303Z,29.08
2022-12-13T02:57:45.939Z,26.17
2022-12-13T03:00:19.403Z,32.95
2022-12-13T03:03:23.270Z,25.48
2022-12-13T03:06:34.184Z,25.85
2022-12-13T03:09:59.868Z,30.50
2022-12-13T03:13:15.115Z,25.40
2022-12-13T03:16:41.028Z,24.55
2022-12-13T03:19:14.941Z,30.67
2022-12-13T03:21:49.679Z,24.33
2022-12-13T03:24:22.067Z,26.40
2022-12-13T03:26:54.122Z,31.15
2022-12-13T03:29:26.148Z,32.13
2022-12-13T03:31:58.201Z,32.33
2022-12-13T03:34:43.305Z,25.88
2022-12-13T03:37:18.689Z,31.20
2022-12-13T03:39:51.108Z,27.08
2022-12-13T03:42:23.165Z,32.20
2022-12-13T03:44:55.129Z,31.25
2022-12-13T03:47:27.253Z,28.25
2022-12-13T03:49:59.235Z,28.65
2022-12-13T03:52:51.939Z,28.25
2022-12-13T03:55:30.192Z,27.40
2022-12-13T03:58:07.742Z,25.88
2022-12-13T04:00:40.951Z,29.52
2022-12-13T04:03:13.063Z,27.25
2022-12-13T04:05:54.718Z,33.88
2022-12-13T04:08:26.726Z,26.88
2022-12-13T04:10:58.802Z,26.70
2022-12-13T04:13:33.599Z,27.85
2022-12-13T04:16:06.040Z,26.73
2022-12-13T04:18:38.591Z,33.28
2022-12-13T04:21:10.818Z,33.33
2022-12-13T04:23:42.881Z,26.85
2022-12-13T04:26:14.970Z,29.38
2022-12-13T04:28:52.657Z,28.45
2022-12-13T04:31:27.076Z,31.88
2022-12-13T04:33:59.186Z,26.08
2022-12-13T04:36:32.851Z,23.15
2022-12-13T04:39:22.297Z,23.92
2022-12-13T04:41:55.039Z,25.50
2022-12-13T04:44:28.986Z,26.17
2022-12-13T04:47:02.773Z,34.45
2022-12-13T04:49:35.527Z,29.48
2022-12-13T04:52:07.797Z,26.33
2022-12-13T04:54:40.652Z,26.80
2022-12-13T04:57:13.182Z,31.13
2022-12-13T04:59:47.014Z,27.58
2022-12-13T05:02:23.395Z,25.98
2022-12-13T05:04:56.134Z,31.30
2022-12-13T05:07:28.330Z,23.60
2022-12-13T05:10:00.230Z,30.17
2022-12-13T05:12:32.375Z,28.40
2022-12-13T05:15:05.275Z,28.42
2022-12-13T05:17:37.802Z,30.30
2022-12-13T05:20:10.432Z,27.10
2022-12-13T05:22:42.489Z,22.27
2022-12-13T05:25:15.631Z,28.63
2022-12-13T05:27:48.023Z,26.13
2022-12-13T05:30:20.656Z,24.63
2022-12-13T05:32:52.656Z,25.02
2022-12-13T05:35:24.925Z,24.95
2022-12-13T05:37:57.508Z,28.95
2022-12-13T05:40:31.428Z,24.10
2022-12-13T05:43:03.647Z,26.58
2022-12-13T05:45:54.686Z,22.02
2022-12-13T05:48:26.693Z,22.83
2022-12-13T05:51:10.973Z,24.63
2022-12-13T05:53:45.257Z,24.98
2022-12-13T05:56:22.653Z,24.00
2022-12-13T05:58:55.502Z,26.38
2022-12-13T06:01:27.450Z,25.77
2022-12-13T06:03:59.803Z,23.92
2022-12-13T06:06:32.033Z,28.67
2022-12-13T06:09:04.493Z,26.55
2022-12-13T06:11:43.284Z,25.00
2022-12-13T06:14:21.356Z,24.92
2022-12-13T06:16:55.229Z,36.10
2022-12-13T06:19:27.928Z,27.25
2022-12-13T06:22:00.058Z,25.50
2022-12-13T06:24:32.242Z,26.58
2022-12-13T06:27:05.364Z,26.50
2022-12-13T06:29:37.669Z,23.52
2022-12-13T06:32:10.758Z,24.40
2022-12-13T06:34:42.778Z,27.95
2022-12-13T06:37:15.288Z,26.17
2022-12-13T06:39:50.389Z,24.00
2022-12-13T06:42:22.680Z,24.67
2022-12-13T06:44:56.181Z,25.00
2022-12-13T06:47:31.276Z,26.80
2022-12-13T06:50:06.007Z,27.95
2022-12-13T06:52:38.573Z,20.77
2022-12-13T06:55:10.628Z,28.95
2022-12-13T06:57:43.917Z,28.75
2022-12-13T07:00:22.259Z,25.90
2022-12-13T07:06:14.917Z,22.63
2022-12-13T07:08:52.035Z,22.00
2022-12-13T07:11:30.300Z,26.63
2022-12-13T07:14:03.692Z,25.40
2022-12-13T07:16:35.924Z,25.08
2022-12-13T07:19:22.730Z,34.50
2022-12-13T07:21:56.577Z,26.38
2022-12-13T07:24:41.062Z,26.50
2022-12-13T07:27:13.127Z,25.92
2022-12-13T07:29:45.258Z,26.45
2022-12-13T07:32:17.433Z,25.58
2022-12-13T07:34:49.716Z,32.85
2022-12-13T07:37:30.076Z,24.50
2022-12-13T07:40:06.517Z,23.92
2022-12-13T07:42:40.017Z,32.85
2022-12-13T07:45:12.430Z,25.38
2022-12-13T07:47:44.865Z,28.90
2022-12-13T07:50:24.737Z,25.55
2022-12-13T07:52:59.043Z,27.25
2022-12-13T07:55:36.569Z,23.33
2022-12-13T07:58:11.837Z,26.90
2022-12-13T08:00:47.404Z,24.95
2022-12-13T08:03:25.423Z,31.95
2022-12-13T08:06:04.694Z,29.58
2022-12-13T08:08:40.156Z,34.08
2022-12-13T08:11:17.555Z,26.13
2022-12-13T08:13:51.202Z,27.98
2022-12-13T08:16:27.402Z,23.77
2022-12-13T08:19:04.406Z,24.42
2022-12-13T08:21:56.732Z,25.92
2022-12-13T08:24:31.107Z,21.55
2022-12-13T08:27:03.809Z,30.17
2022-12-13T08:29:36.729Z,25.05
2022-12-13T08:32:14.392Z,24.35
2022-12-13T08:34:46.551Z,22.48
2022-12-13T08:37:19.489Z,28.90
2022-12-13T08:39:51.800Z,26.70
2022-12-13T08:42:25.349Z,27.17
2022-12-13T08:44:58.489Z,28.00
2022-12-13T08:47:30.825Z,28.77
2022-12-13T08:50:04.413Z,30.98
2022-12-13T08:52:40.735Z,26.00
2022-12-13T08:55:25.005Z,21.35
2022-12-13T08:58:08.412Z,24.52
2022-12-13T09:00:42.914Z,27.67
2022-12-13T09:03:17.214Z,34.28
2022-12-13T09:05:50.394Z,26.80
2022-12-13T09:08:25.547Z,23.67
2022-12-13T09:11:00.146Z,26.48
2022-12-13T09:13:43.116Z,23.27
2022-12-13T09:16:35.659Z,23.30
2022-12-13T09:19:26.215Z,28.60
2022-12-13T09:22:02.339Z,28.58
2022-12-13T09:24:37.147Z,25.95
2022-12-13T09:27:10.446Z,32.38
2022-12-13T09:30:00.933Z,25.40
2022-12-13T09:32:33.975Z,30.88
2022-12-13T09:35:06.971Z,27.40
2022-12-13T09:37:45.562Z,20.80
2022-12-13T09:40:37.976Z,28.20
2022-12-13T09:43:23.007Z,25.48
2022-12-13T09:46:34.812Z,26.92
2022-12-13T09:49:35.301Z,23.75
2022-12-13T09:52:21.661Z,27.35
2022-12-13T09:54:57.546Z,22.92
2022-12-13T09:57:34.171Z,26.55
2022-12-13T10:00:14.190Z,26.00
2022-12-13T10:02:54.040Z,27.90
2022-12-13T10:05:39.573Z,26.25
2022-12-13T10:08:40.629Z,24.67
2022-12-13T10:11:18.029Z,22.83
2022-12-13T10:14:10.940Z,17.75
2022-12-13T10:16:51.475Z,30.65
2022-12-13T10:19:39.287Z,24.48
2022-12-13T10:22:17.089Z,27.13
2022-12-13T10:24:57.723Z,25.83
2022-12-13T10:27:38.464Z,28.80
2022-12-13T10:30:26.172Z,29.73
2022-12-13T10:33:37.600Z,25.02
2022-12-13T10:36:30.332Z,29.48
2022-12-13T10:39:07.413Z,28.80
2022-12-13T10:41:48.306Z,23.65
2022-12-13T10:44:35.403Z,22.38
2022-12-13T10:47:11.737Z,24.38
2022-12-13T10:50:01.708Z,23.85
2022-12-13T10:52:43.724Z,27.73
2022-12-13T10:55:38.650Z,24.77
2022-12-13T10:58:22.408Z,21.33
2022-12-13T11:01:32.823Z,29.60
2022-12-13T11:04:26.915Z,31.08
2022-12-13T11:07:22.785Z,25.48
2022-12-13T11:10:26.628Z,23.40
2022-12-13T11:13:06.383Z,26.83
2022-12-13T11:15:40.282Z,22.92
2022-12-13T11:18:23.508Z,25.80
2022-12-13T11:21:02.156Z,22.60
2022-12-13T11:23:40.024Z,29.65
2022-12-13T11:26:24.366Z,20.77
2022-12-13T11:29:05.697Z,24.40
2022-12-13T11:32:10.041Z,24.45
2022-12-13T11:35:23.226Z,26.85
2022-12-13T11:39:04.494Z,21.77
2022-12-13T11:42:13.602Z,21.98
2022-12-13T11:45:22.238Z,22.75
2022-12-13T11:48:05.057Z,21.42
2022-12-13T11:50:57.418Z,21.88
2022-12-13T11:53:49.776Z,22.17
2022-12-13T11:56:42.666Z,22.15
2022-12-13T11:59:25.860Z,24.23
2022-12-13T12:02:29.577Z,26.27
2022-12-13T12:05:28.381Z,19.92
2022-12-13T12:08:44.224Z,27.33
2022-12-13T12:11:46.581Z,21.80
2022-12-13T12:14:41.904Z,23.50
2022-12-13T12:17:24.913Z,24.42
2022-12-13T12:19:59.010Z,22.10
2022-12-13T12:23:19.057Z,20.55
2022-12-13T12:26:18.677Z,21.73
2022-12-13T12:29:38.568Z,23.52
2022-12-13T12:32:57.872Z,21.63
2022-12-13T12:36:08.371Z,21.65
2022-12-13T12:39:45.629Z,20.67
2022-12-13T12:43:14.467Z,17.88
2022-12-13T12:46:09.121Z,23.15
2022-12-13T12:49:36.446Z,18.10
2022-12-13T12:52:37.965Z,18.98
2022-12-13T12:55:34.810Z,20.25
2022-12-13T12:58:39.110Z,17.40
2022-12-13T13:01:55.986Z,20.77
2022-12-13T13:04:53.001Z,21.20
2022-12-13T13:07:51.370Z,22.77
2022-12-13T13:10:30.473Z,19.35
2022-12-13T13:13:11.421Z,23.67
2022-12-13T13:16:07.057Z,21.65
2022-12-13T13:19:02.823Z,22.90
2022-12-13T13:22:01.601Z,15.93
2022-12-13T13:24:36.014Z,18.13
2022-12-13T13:27:09.257Z,17.33
2022-12-13T13:30:17.756Z,17.95
2022-12-13T13:32:55.873Z,19.00
2022-12-13T13:35:33.437Z,18.27
2022-12-13T13:38:24.044Z,18.30
2022-12-13T13:40:59.621Z,21.30
2022-12-13T13:43:52.156Z,23.67
2022-12-13T13:46:25.128Z,17.88
2022-12-13T13:49:12.323Z,15.35
2022-12-13T13:52:29.687Z,20.90
2022-12-13T13:55:25.742Z,16.58
2022-12-13T13:58:36.771Z,16.25
2022-12-13T14:02:01.064Z,13.77
2022-12-13T14:05:21.882Z,20.55
2022-12-13T14:08:51.672Z,16.55
2022-12-13T14:12:07.879Z,20.63
2022-12-13T14:15:34.184Z,18.92
2022-12-13T14:18:45.165Z,12.25
2022-12-13T14:21:58.576Z,19.10
2022-12-13T14:24:58.566Z,18.83
2022-12-13T14:28:03.124Z,20.02
2022-12-13T14:30:57.532Z,15.88
2022-12-13T14:33:30.531Z,17.25
2022-12-13T14:36:04.314Z,18.85
2022-12-13T14:38:37.112Z,16.98
2022-12-13T14:41:21.459Z,11.30
2022-12-13T14:43:54.578Z,17.83
2022-12-13T14:46:28.438Z,12.27
2022-12-13T14:49:07.500Z,19.00
2022-12-13T14:51:42.826Z,19.42
2022-12-13T14:54:26.110Z,14.18
2022-12-13T14:57:05.339Z,14.07
2022-12-13T14:59:55.485Z,14.77
2022-12-13T15:02:33.193Z,15.25
2022-12-13T15:05:07.660Z,15.55
2022-12-13T15:07:55.954Z,15.60
2022-12-13T15:10:37.765Z,18.67
2022-12-13T15:13:29.380Z,14.45
2022-12-13T15:16:28.982Z,13.07
2022-12-13T15:19:31.153Z,18.20
2022-12-13T15:22:16.146Z,13.10
2022-12-13T15:24:53.890Z,16.25
2022-12-13T15:27:27.622Z,16.60
2022-12-13T15:30:00.494Z,12.95
2022-12-13T15:32:33.813Z,15.32
2022-12-13T15:35:17.169Z,19.42
2022-12-13T15:37:58.403Z,14.30
2022-12-13T15:40:33.428Z,17.17
2022-12-13T15:43:06.765Z,16.05
2022-12-13T15:45:52.009Z,12.27
2022-12-13T15:48:41.717Z,16.25
2022-12-13T15:51:28.745Z,15.48
2022-12-13T15:54:12.551Z,21.85
2022-12-13T15:57:14.550Z,14.55
2022-12-13T16:00:29.996Z,17.05
2022-12-13T16:03:15.052Z,17.83
2022-12-13T16:05:55.767Z,18.83
2022-12-13T16:08:35.988Z,16.05
2022-12-13T16:11:11.003Z,21.00
2022-12-13T16:13:47.482Z,14.18
2022-12-13T16:16:30.296Z,15.80
2022-12-13T16:19:17.776Z,14.10
2022-12-13T16:21:51.178Z,18.38
2022-12-13T16:24:24.049Z,15.43
2022-12-13T16:26:57.733Z,13.55
2022-12-13T16:29:33.891Z,14.73
2022-12-13T16:32:11.367Z,18.30
2022-12-13T16:34:48.724Z,12.57
2022-12-13T16:37:27.559Z,15.68
2022-12-13T16:40:02.112Z,13.80
2022-12-13T16:43:00.843Z,21.52
2022-12-13T16:45:43.386Z,13.85
2022-12-13T16:48:26.599Z,17.80
2022-12-13T16:51:06.464Z,10.75
2022-12-13T16:53:40.320Z,15.23
2022-12-13T16:56:17.028Z,15.77
2022-12-13T16:58:56.906Z,15.57
2022-12-13T17:01:29.734Z,13.95
2022-12-13T17:04:11.765Z,13.40
2022-12-13T17:06:50.574Z,14.75
2022-12-13T17:09:27.065Z,15.43
2022-12-13T17:12:00.331Z,18.75
2022-12-13T17:14:33.384Z,20.48
2022-12-13T17:17:07.210Z,13.50
2022-12-13T17:19:41.067Z,15.48
2022-12-13T17:22:14.193Z,18.63
2022-12-13T17:24:47.247Z,12.82
2022-12-13T17:27:20.573Z,14.30
2022-12-13T17:29:54.287Z,13.82
2022-12-13T17:32:29.372Z,17.83
2022-12-13T17:35:04.553Z,16.30
2022-12-13T17:37:39.128Z,13.80
2022-12-13T17:40:12.261Z,14.82
2022-12-13T17:42:48.921Z,15.98
2022-12-13T17:45:37.204Z,13.75
2022-12-13T17:48:31.598Z,13.20
2022-12-13T17:51:15.110Z,12.73
2022-12-13T17:53:47.750Z,20.23
2022-12-13T17:56:20.494Z,14.93
2022-12-13T17:58:53.119Z,13.85
2022-12-13T18:01:26.983Z,15.40
2022-12-13T18:03:59.513Z,14.98
2022-12-13T18:06:32.769Z,19.15
2022-12-13T18:09:26.062Z,16.58
2022-12-13T18:11:59.916Z,17.23
2022-12-13T18:14:37.119Z,13.88
2022-12-13T18:17:11.208Z,16.90
2022-12-13T18:19:49.816Z,18.10
2022-12-13T18:22:24.600Z,18.40
2022-12-13T18:25:00.116Z,18.85
2022-12-13T18:27:33.425Z,15.77
2022-12-13T18:30:07.460Z,16.90
2022-12-13T18:32:44.362Z,15.85
2022-12-13T18:35:17.734Z,15.07
2022-12-13T18:37:51.106Z,17.75
2022-12-13T18:40:23.851Z,16.88
2022-12-13T18:42:56.950Z,17.75
2022-12-13T18:45:30.297Z,15.32
2022-12-13T18:48:10.651Z,15.52
2022-12-13T18:50:48.781Z,22.15
2022-12-13T18:53:21.796Z,17.90
2022-12-13T18:56:02.846Z,16.98
2022-12-13T18:58:39.704Z,18.45
2022-12-13T19:01:17.447Z,20.73
2022-12-13T19:03:54.197Z,19.65
2022-12-13T19:06:29.327Z,19.55
2022-12-13T19:09:03.650Z,20.15
2022-12-13T19:11:40.205Z,15.45
2022-12-13T19:14:15.391Z,12.95
2022-12-13T19:16:49.894Z,17.55
2022-12-13T19:19:23.978Z,14.50
2022-12-13T19:21:57.223Z,20.45
2022-12-13T19:24:32.685Z,15.13
2022-12-13T19:27:10.249Z,17.98
2022-12-13T19:29:47.478Z,21.95
2022-12-13T19:32:22.086Z,15.65
2022-12-13T19:35:04.053Z,19.48
2022-12-13T19:37:38.880Z,16.58
2022-12-13T19:40:14.218Z,18.30
2022-12-13T19:42:48.474Z,15.52
2022-12-13T19:45:22.434Z,16.75
2022-12-13T19:48:00.223Z,13.00
2022-12-13T19:50:33.520Z,19.98
2022-12-13T19:53:10.927Z,17.17
2022-12-13T19:55:48.255Z,15.27
2022-12-13T19:58:22.349Z,16.63
2022-12-13T20:01:07.958Z,15.88
2022-12-13T20:03:45.805Z,17.23
2022-12-13T20:06:22.456Z,20.00
2022-12-13T20:08:56.866Z,15.82
2022-12-13T20:11:34.807Z,15.73
2022-12-13T20:14:16.851Z,16.02
2022-12-13T20:16:50.767Z,14.63
2022-12-13T20:19:23.843Z,18.25
2022-12-13T20:22:01.464Z,16.48
2022-12-13T20:24:35.225Z,16.33
2022-12-13T20:27:11.522Z,20.13
2022-12-13T20:29:48.536Z,22.73
2022-12-13T20:32:22.773Z,19.65
2022-12-13T20:34:57.204Z,19.35
2022-12-13T20:37:30.527Z,15.20
2022-12-13T20:40:03.836Z,15.75
2022-12-13T20:42:40.025Z,12.10
2022-12-13T20:45:13.254Z,14.35
2022-12-13T20:47:50.401Z,17.60
2022-12-13T20:50:27.067Z,15.20
2022-12-13T20:53:04.380Z,14.32
2022-12-13T20:55:38.754Z,14.05
2022-12-13T20:58:13.974Z,16.92
2022-12-13T21:00:50.657Z,21.50
2022-12-13T21:03:28.971Z,14.60
2022-12-13T21:06:04.466Z,13.20
2022-12-13T21:09:01.220Z,15.57
2022-12-13T21:11:47.185Z,14.88
2022-12-13T21:14:28.271Z,17.83
2022-12-13T21:17:05.434Z,15.18
2022-12-13T21:19:44.078Z,14.32
2022-12-13T21:22:23.169Z,14.40
2022-12-13T21:24:58.184Z,16.40
2022-12-13T21:27:30.958Z,14.23
2022-12-13T21:30:04.377Z,17.90
2022-12-13T21:32:39.195Z,18.38
2022-12-13T21:35:12.149Z,16.48
2022-12-13T21:37:45.031Z,16.67
2022-12-13T21:40:21.962Z,13.73
2022-12-13T21:42:56.360Z,17.70
2022-12-13T21:45:29.181Z,14.20
2022-12-13T21:48:01.532Z,17.52
2022-12-13T21:50:34.017Z,14.57
2022-12-13T21:53:06.786Z,15.60
2022-12-13T21:55:44.206Z,13.27
2022-12-13T21:58:41.056Z,13.25
2022-12-13T22:01:51.465Z,16.42
2022-12-13T22:04:45.491Z,15.38
2022-12-13T22:07:30.010Z,18.30
2022-12-13T22:10:04.504Z,17.10
2022-12-13T22:12:40.864Z,16.83
2022-12-13T22:15:15.446Z,15.52
2022-12-13T22:17:47.797Z,16.08
2022-12-13T22:20:20.351Z,15.77
2022-12-13T22:22:54.181Z,16.67
2022-12-13T22:25:27.692Z,16.63
2022-12-13T22:28:00.365Z,16.60
2022-12-13T22:30:34.281Z,15.93
2022-12-13T22:33:07.028Z,16.92
2022-12-13T22:35:40.613Z,14.68
2022-12-13T22:38:14.231Z,14.82
2022-12-13T22:40:46.908Z,13.10
2022-12-13T22:43:20.811Z,27.10
2022-12-13T22:45:53.125Z,17.60
2022-12-13T22:48:35.821Z,16.73
2022-12-13T22:51:11.875Z,17.23
2022-12-13T22:53:47.764Z,16.33
2022-12-13T22:56:21.970Z,14.65
2022-12-13T22:58:56.449Z,15.43
2022-12-13T23:01:36.589Z,16.73
2022-12-13T23:04:12.015Z,16.42
2022-12-13T23:06:44.042Z,14.52
2022-12-13T23:09:16.399Z,12.45
2022-12-13T23:12:07.376Z,18.55
2022-12-13T23:14:59.198Z,18.38
2022-12-13T23:17:31.623Z,14.80
2022-12-13T23:20:04.599Z,16.58
2022-12-13T23:22:37.418Z,16.52
2022-12-13T23:25:10.086Z,14.43
2022-12-13T23:27:42.532Z,14.23
2022-12-13T23:30:14.743Z,17.85
2022-12-13T23:32:47.213Z,15.68
2022-12-13T23:35:20.037Z,18.13
2022-12-13T23:37:53.063Z,15.13
2022-12-13T23:40:25.632Z,14.55
2022-12-13T23:42:58.052Z,17.13
2022-12-13T23:45:30.293Z,16.25
2022-12-13T23:48:03.591Z,26.65
2022-12-13T23:50:35.989Z,13.95
2022-12-13T23:53:12.878Z,14.45
2022-12-13T23:55:45.427Z,15.60
2022-12-13T23:58:23.096Z,17.15
